• Join FlightAware (Why Join?)
  • Login
  • US Flag 
06:21AM EDT


 

Airport Tracker/Info


-or-


 

Live Flight TrackerFlight Track Log ✈ SWA3228 ✈ 29-Apr-2013 ✈ KMDW - KCLE

Flight Track Log - Related Links

Times and Time Zones

All times are in EDT time to prevent confusion due to time zone crossing. See the SWA3228 flight status page for this flight to view local times or setup timezone preferences in your user account.

Time Position Orientation Groundspeed Altitude Reporting Facility
EDT Latitude Longitude Course Direction KTS MPH feet Rate Location/Type
12:40PM 41.7644 -87.6800 87° East 223 257 4,000  Level Chicago Center
12:41PM 41.7703 -87.5953 85° East 226 260 4,900 2,220 Climbing Chicago Center
12:42PM 41.7694 -87.4942 91° East 279 321 8,700 3,900 Climbing Chicago Center
12:43PM 41.7667 -87.3806 92° East 305 351 13,000 4,020 Climbing Chicago Center
12:44PM 41.7650 -87.2272 91° East 345 397 17,000 3,720 Climbing Chicago Center
12:45PM 41.7614 -87.0853 92° East 378 435 20,700 2,880 Climbing Chicago Center
12:46PM 41.7633 -86.9356 89° East 402 463 23,000 1,080 Climbing Chicago Center
12:47PM 41.7644 -86.7839 89° East 409 471 23,000  Level Chicago Center
12:48PM 41.7650 -86.6400 90° East 408 470 23,000 1,320 Level Chicago Center
12:49PM 41.7675 -86.4567 89° East 414 476 25,800 2,700 Climbing Chicago Center
12:50PM 41.7692 -86.2972 89° East 429 494 28,600 2,460 Climbing Chicago Center
12:51PM 41.7881 -86.1389 81° East 431 496 31,000 1,140 Climbing Chicago Center
12:52PM 41.8056 -85.9794 82° East 434 499 31,000  Level Chicago Center
12:53PM 41.8225 -85.8214 82° East 430 495 31,000  Level Chicago Center
12:54PM 41.8392 -85.6606 82° East 432 497 31,000  Level Chicago Center
12:55PM 41.8572 -85.5011 81° East 429 494 31,000  Level Chicago Center
12:56PM 41.8728 -85.3419 82° East 424 488 31,000  Level Chicago Center
12:57PM 41.8839 -85.2444 81° East 422 486 31,000  Level Cleveland Center
12:58PM 41.9008 -85.0808 82° East 422 486 31,000  Level Cleveland Center
12:59PM 41.9178 -84.9147 82° East 434 499 31,000  Level Cleveland Center
01:00PM 41.9344 -84.7425 83° East 445 512 31,000  Level Cleveland Center
01:01PM 41.9511 -84.5733 82° East 451 519 31,000  Level Cleveland Center
01:02PM 41.9692 -84.4067 82° East 456 525 31,000  Level Cleveland Center
01:03PM 41.9794 -84.2203 86° East 456 525 31,000  Level Cleveland Center
01:04PM 41.9950 -84.0506 83° East 456 525 31,000 -300 Level Cleveland Center
01:05PM 42.0083 -83.8808 84° East 456 525 30,500 -1,500 Descending Cleveland Center
01:06PM 42.0233 -83.7167 83° East 456 525 28,000 -2,280 Descending Cleveland Center
01:07PM 42.0353 -83.5914 83° East 443 510 26,000 -1,680 Descending Cleveland Center
01:08PM 42.0419 -83.4044 87° East 421 484 24,700 -1,200 Descending Cleveland Center
01:09PM 42.0269 -83.2500 97° East 421 484 23,700 -1,020 Descending Cleveland Center
01:10PM 42.0117 -83.0956 98° East 421 484 22,700 -1,020 Descending Cleveland Center
01:11PM 41.9961 -82.9469 98° East 416 479 21,700 -1,140 Descending Cleveland Center
01:12PM 41.9822 -82.8011 97° East 406 467 20,500 -1,740 Descending Cleveland Center
01:13PM 41.9683 -82.6581 97° East 394 453 18,300 -2,280 Descending Cleveland Center
01:14PM 41.9475 -82.5319 102° East 371 427 16,000 -2,340 Descending Cleveland Center
01:15PM 41.9103 -82.3967 110° East 369 425 13,700 -2,280 Descending Cleveland Center
01:16PM 41.8725 -82.2758 113° Southeast 358 412 11,500 -1,920 Descending Cleveland Center
01:17PM 41.8344 -82.1633 114° Southeast 348 400 10,000 -840 Descending Cleveland Center
01:18PM 41.7747 -82.1006 142° Southeast 312 359 9,900 -960 Descending Cleveland Center
01:19PM 41.7069 -82.0378 145° Southeast 299 344 8,100 -1,620 Descending Cleveland Center
01:20PM 41.6408 -81.9753 145° Southeast 288 331 6,700 -1,500 Descending Cleveland Center
01:21PM 41.6086 -81.8856 116° Southeast 262 302 5,200 -1,380 Descending Cleveland Center
01:22PM 41.5828 -81.7794 108° East 262 302 4,000 -960 Descending Cleveland Center
01:23PM 41.5397 -81.7011 126° Southeast 263 303 3,400 -660 Descending Cleveland Center
01:23PM 41.5231 -81.6953 165° South 236 272 3,200 -420 Descending Cleveland Center
01:24PM 41.4831 -81.7417 221° Southwest 176 203 2,900 -600 Descending Cleveland Center
01:25PM 41.4533 -81.7883 230° Southwest 164 189 2,100 -780 Descending Cleveland Center
01:26PM 41.4322 -81.8183 227° Southwest 111 128 1,500 -720 Descending Cleveland Center
01:28PM 41.4000 -81.8500 227° Southwest  Level FlightAware Approximate